Strona główna
METAR-TAF:

METAR-TAF

Lotnisko :

Port lotniczy Bangi

Bangi, Republika Środkowoafrykańska

Szerokość geograficzna: 04-24N, Długość geograficzna: 018-31E, wysokość: 365 m

Aktualna obserwacja pogody

Raport powstał 7 godziny i 34 minut temu, godzina 18:00 UTC
Cisza
Temperatura 30°C
Wilgotność 62%
Ciśnienie 1008 hPa
Widzialność: 8000 m

METAR: FEFF 251800Z 00000KT 8000 NSC 30/22 Q1008 NOSIG

czas: 02:34 (01:34 UTC)

Prognoza

Raport powstał 2 godziny i 34 minut temu, godzina 23:00 UTC
Prognoza ważna od 26 godzina 00 UTC do 27 godzina 06 UTC
Wiatr 3 kt z kierunków zmiennych
Widzialność 10 km lub więcej
Mało chmury na wysokości 400 ft
Przejściowo
pomiędzy CA i VO UTC
Stopniowe zmiany
od 26 godzina 04 UTC do 26 godzina 06 UTC
Widzialność: 3000 m
zamglenie
Od 26 godzina 0900 UTC
Wiatr 6 kt od południowo-południowy zachód
Widzialność 10 km lub więcej
Rozproszone chmury na wysokości 2300 ft

TAF: FEFF 252300Z 2600/2706 VRB03KT 9999 FEW004 TEMPO CAVOK BECMG 2604/2606 3000 BR FM260900 20006KT 9999 SCT023

Obserwacja i prognoza pogody dla ponad 4000 lotnisk (raport METAR i TAF).

Dostępne stacje oznaczono żółtymi i czerwonymi punktami na mapie.

Najedź kursorem aby zobaczyć nazwę stacji.

Kliknij aby zobaczyć obserwacje i prognozy pogody.

Aby zmienić mapę: kliknij na zielony przycisk z czarnym krzyżykiem, aby powiększyć; na zielony przycisk z myślnikiem, aby pomniejszyć; na zielone strzałki, aby przejść do map sąsiednich.


METAR-TAF: